createdAt,value
2022-11-16T00:00:08.540Z,100900.92
2022-11-16T00:01:04.678Z,100905.31
2022-11-16T00:02:06.535Z,100909.63
2022-11-16T00:03:08.399Z,100904.48
2022-11-16T00:04:10.256Z,100908.80
2022-11-16T00:05:12.050Z,100902.78
2022-11-16T00:06:14.004Z,100901.05
2022-11-16T00:07:15.924Z,100899.36
2022-11-16T00:08:17.788Z,100899.33
2022-11-16T00:09:19.628Z,100899.33
2022-11-16T00:10:21.438Z,100901.95
2022-11-16T00:11:23.284Z,100894.14
2022-11-16T00:12:25.100Z,100893.28
2022-11-16T00:13:26.905Z,100888.09
2022-11-16T00:14:28.769Z,100886.40
2022-11-16T00:15:30.579Z,100894.17
2022-11-16T00:16:32.460Z,100882.94
2022-11-16T00:17:34.276Z,100893.34
2022-11-16T00:18:36.292Z,100882.11
2022-11-16T00:19:38.199Z,100882.94
2022-11-16T00:20:39.987Z,100884.70
2022-11-16T00:21:41.897Z,100882.94
2022-11-16T00:22:43.747Z,100877.78
2022-11-16T00:23:45.591Z,100880.38
2022-11-16T00:24:47.460Z,100881.31
2022-11-16T00:25:49.301Z,100883.04
2022-11-16T00:26:51.278Z,100883.07
2022-11-16T00:27:53.096Z,100879.58
2022-11-16T00:28:54.956Z,100876.16
2022-11-16T00:29:56.813Z,100875.30
2022-11-16T00:30:58.624Z,100870.97
2022-11-16T00:32:00.551Z,100863.22
2022-11-16T00:33:02.418Z,100870.17
2022-11-16T00:34:04.234Z,100862.39
2022-11-16T00:35:06.056Z,100855.48
2022-11-16T00:36:08.161Z,100850.30
2022-11-16T00:37:10.013Z,100852.91
2022-11-16T00:38:11.884Z,100855.54
2022-11-16T00:39:13.733Z,100852.08
2022-11-16T00:40:15.590Z,100852.95
2022-11-16T00:41:17.434Z,100851.22
2022-11-16T00:42:19.313Z,100852.11
2022-11-16T00:43:21.125Z,100849.52
2022-11-16T00:44:22.931Z,100848.66
2022-11-16T00:45:24.898Z,100843.47
2022-11-16T00:46:26.739Z,100839.15
2022-11-16T00:47:28.675Z,100835.66
2022-11-16T00:48:30.707Z,100834.80
2022-11-16T00:49:32.691Z,100843.44
2022-11-16T00:50:34.633Z,100834.77
2022-11-16T00:51:36.451Z,100828.74
2022-11-16T00:52:38.552Z,100829.58
2022-11-16T00:53:40.357Z,100831.34
2022-11-16T00:54:42.185Z,100827.02
2022-11-16T00:55:43.993Z,100829.64
2022-11-16T00:56:45.793Z,100819.27
2022-11-16T00:57:47.697Z,100815.84
2022-11-16T00:58:49.543Z,100822.75
2022-11-16T00:59:51.404Z,100826.24
2022-11-16T01:00:53.261Z,100821.89
2022-11-16T01:01:55.156Z,100817.59
2022-11-16T01:02:57.151Z,100814.14
2022-11-16T01:03:58.952Z,100811.55
2022-11-16T01:05:00.803Z,100811.58
2022-11-16T01:06:02.707Z,100797.77
2022-11-16T01:07:04.612Z,100802.09
2022-11-16T01:08:06.570Z,100798.67
2022-11-16T01:09:08.359Z,100798.67
2022-11-16T01:10:10.529Z,100796.94
2022-11-16T01:11:12.369Z,100793.52
2022-11-16T01:12:14.171Z,100797.00
2022-11-16T01:13:16.055Z,100790.08
2022-11-16T01:14:17.918Z,100786.63
2022-11-16T01:15:19.737Z,100784.89
2022-11-16T01:16:21.590Z,100779.68
2022-11-16T01:17:23.425Z,100783.11
2022-11-16T01:18:25.336Z,100779.65
2022-11-16T01:19:27.136Z,100777.92
2022-11-16T01:20:28.944Z,100783.11
2022-11-16T01:21:30.760Z,100781.38
2022-11-16T01:22:32.629Z,100788.33
2022-11-16T01:23:34.510Z,100788.33
2022-11-16T01:24:36.324Z,100789.19
2022-11-16T01:25:38.138Z,100780.57
2022-11-16T01:26:40.003Z,100778.84
2022-11-16T01:27:41.800Z,100777.14
2022-11-16T01:28:43.650Z,100779.73
2022-11-16T01:29:45.483Z,100776.31
2022-11-16T01:30:47.278Z,100764.98
2022-11-16T01:31:49.104Z,100772.87
2022-11-16T01:32:50.928Z,100769.45
2022-11-16T01:33:52.835Z,100769.48
2022-11-16T01:34:54.652Z,100764.31
2022-11-16T01:35:56.540Z,100769.53
2022-11-16T01:36:58.341Z,100766.08
2022-11-16T01:38:00.211Z,100764.34
2022-11-16T01:39:02.090Z,100760.02
2022-11-16T01:40:03.950Z,100762.61
2022-11-16T01:41:05.796Z,100759.16
2022-11-16T01:42:07.604Z,100761.75
2022-11-16T01:43:09.398Z,100754.83
2022-11-16T01:44:11.254Z,100753.99
2022-11-16T01:45:13.077Z,100762.64
2022-11-16T01:46:14.936Z,100747.94
2022-11-16T01:47:16.778Z,100756.59
2022-11-16T01:48:18.695Z,100749.67
2022-11-16T01:49:20.976Z,100749.67
2022-11-16T01:50:22.785Z,100744.51
2022-11-16T01:51:24.614Z,100740.22
2022-11-16T01:52:26.453Z,100736.73
2022-11-16T01:53:28.264Z,100740.22
2022-11-16T01:54:30.157Z,100734.16
2022-11-16T01:55:31.968Z,100733.33
2022-11-16T01:56:33.805Z,100730.73
2022-11-16T01:57:35.676Z,100734.19
2022-11-16T01:58:37.468Z,100721.23
2022-11-16T01:59:39.361Z,100731.62
2022-11-16T02:00:41.219Z,100728.19
2022-11-16T02:01:43.154Z,100729.92
2022-11-16T02:02:44.940Z,100728.19
2022-11-16T02:03:46.822Z,100723.86
2022-11-16T02:04:48.732Z,100719.57
2022-11-16T02:05:50.548Z,100714.35
2022-11-16T02:06:52.419Z,100714.35
2022-11-16T02:07:54.319Z,100713.48
2022-11-16T02:08:56.184Z,100721.27
2022-11-16T02:09:58.034Z,100713.48
2022-11-16T02:10:59.833Z,100710.86
2022-11-16T02:12:01.687Z,100713.48
2022-11-16T02:13:03.553Z,100710.05
2022-11-16T02:14:05.382Z,100713.51
2022-11-16T02:15:07.230Z,100710.91
2022-11-16T02:16:09.349Z,100702.30
2022-11-16T02:17:11.189Z,100708.34
2022-11-16T02:18:13.015Z,100708.32
2022-11-16T02:19:14.810Z,100710.91
2022-11-16T02:20:16.772Z,100703.11
2022-11-16T02:21:18.585Z,100710.91
2022-11-16T02:22:20.464Z,100710.89
2022-11-16T02:23:22.682Z,100703.98
2022-11-16T02:24:24.545Z,100712.62
2022-11-16T02:25:26.452Z,100710.86
2022-11-16T02:26:28.305Z,100713.48
2022-11-16T02:27:30.127Z,100712.56
2022-11-16T02:28:32.233Z,100706.52
2022-11-16T02:29:34.184Z,100706.52
2022-11-16T02:30:36.037Z,100704.78
2022-11-16T02:31:37.884Z,100703.92
2022-11-16T02:32:39.736Z,100710.81
2022-11-16T02:33:41.564Z,100704.76
2022-11-16T02:34:43.423Z,100713.38
2022-11-16T02:35:45.349Z,100702.16
2022-11-16T02:36:47.265Z,100702.16
2022-11-16T02:37:49.102Z,100705.63
2022-11-16T02:38:50.937Z,100708.22
2022-11-16T02:39:52.787Z,100697.00
2022-11-16T02:40:54.623Z,100696.16
2022-11-16T02:41:56.452Z,100694.41
2022-11-16T02:42:58.329Z,100692.70
2022-11-16T02:44:00.155Z,100694.45
2022-11-16T02:45:02.090Z,100698.81
2022-11-16T02:46:04.062Z,100686.70
2022-11-16T02:47:05.870Z,100691.91
2022-11-16T02:48:07.736Z,100697.11
2022-11-16T02:49:09.570Z,100697.11
2022-11-16T02:50:11.582Z,100705.75
2022-11-16T02:51:13.544Z,100697.99
2022-11-16T02:52:15.335Z,100704.89
2022-11-16T02:53:17.228Z,100698.84
2022-11-16T02:54:19.024Z,100705.75
2022-11-16T02:55:20.845Z,100701.43
2022-11-16T02:56:22.733Z,100709.22
2022-11-16T02:57:24.667Z,100704.86
2022-11-16T02:58:26.483Z,100704.86
2022-11-16T02:59:28.282Z,100702.27
2022-11-16T03:00:30.133Z,100703.12
2022-11-16T03:01:32.056Z,100700.51
2022-11-16T03:02:33.872Z,100691.86
2022-11-16T03:03:35.659Z,100687.53
2022-11-16T03:04:37.470Z,100681.52
2022-11-16T03:05:39.326Z,100685.84
2022-11-16T03:06:41.239Z,100683.24
2022-11-16T03:07:43.059Z,100679.75
2022-11-16T03:08:44.866Z,100678.89
2022-11-16T03:09:46.649Z,100677.16
2022-11-16T03:10:48.467Z,100682.34
2022-11-16T03:11:50.311Z,100684.94
2022-11-16T03:12:52.102Z,100679.75
2022-11-16T03:13:53.913Z,100682.32
2022-11-16T03:14:55.726Z,100684.89
2022-11-16T03:15:57.527Z,100679.67
2022-11-16T03:16:59.436Z,100673.63
2022-11-16T03:18:01.241Z,100673.63
2022-11-16T03:19:03.062Z,100677.08
2022-11-16T03:20:04.991Z,100667.58
2022-11-16T03:21:06.778Z,100675.38
2022-11-16T03:22:08.720Z,100672.78
2022-11-16T03:23:10.530Z,100673.65
2022-11-16T03:24:12.349Z,100676.25
2022-11-16T03:25:14.172Z,100674.48
2022-11-16T03:26:15.977Z,100673.65
2022-11-16T03:27:17.793Z,100671.89
2022-11-16T03:28:19.602Z,100671.92
2022-11-16T03:29:21.421Z,100665.01
2022-11-16T03:30:23.993Z,100668.48
2022-11-16T03:31:25.943Z,100657.25
2022-11-16T03:32:27.775Z,100656.38
2022-11-16T03:33:29.566Z,100651.19
2022-11-16T03:34:31.409Z,100656.38
2022-11-16T03:35:33.239Z,100648.57
2022-11-16T03:36:35.150Z,100645.16
2022-11-16T03:37:37.034Z,100640.81
2022-11-16T03:38:38.859Z,100647.78
2022-11-16T03:39:42.478Z,100639.14
2022-11-16T03:40:44.288Z,100631.38
2022-11-16T03:41:46.096Z,100636.56
2022-11-16T03:42:47.964Z,100627.86
2022-11-16T03:43:49.773Z,100629.59
2022-11-16T03:44:51.601Z,100624.41
2022-11-16T03:45:53.405Z,100621.81
2022-11-16T03:46:55.222Z,100625.22
2022-11-16T03:47:57.081Z,100630.43
2022-11-16T03:48:58.898Z,100621.77
2022-11-16T03:50:00.729Z,100625.20
2022-11-16T03:51:02.677Z,100627.78
2022-11-16T03:52:04.484Z,100626.95
2022-11-16T03:53:06.433Z,100628.70
2022-11-16T03:54:08.217Z,100631.30
2022-11-16T03:55:10.062Z,100631.30
2022-11-16T03:56:11.876Z,100633.02
2022-11-16T03:57:13.693Z,100619.17
2022-11-16T03:58:15.575Z,100613.12
2022-11-16T03:59:17.359Z,100605.31
2022-11-16T04:00:19.271Z,100611.34
2022-11-16T04:01:21.114Z,100627.77
2022-11-16T04:02:22.880Z,100626.06
2022-11-16T04:03:24.714Z,100626.90
2022-11-16T04:04:26.612Z,100619.14
2022-11-16T04:05:28.407Z,100615.71
2022-11-16T04:06:30.219Z,100618.30
2022-11-16T04:07:32.102Z,100621.78
2022-11-16T04:08:34.249Z,100626.98
2022-11-16T04:09:36.175Z,100618.38
2022-11-16T04:10:38.086Z,100622.70
2022-11-16T04:11:39.883Z,100627.08
2022-11-16T04:12:41.682Z,100621.02
2022-11-16T04:13:43.548Z,100608.93
2022-11-16T04:14:45.340Z,100614.95
2022-11-16T04:15:47.160Z,100608.05
2022-11-16T04:16:48.983Z,100608.05
2022-11-16T04:17:50.807Z,100608.05
2022-11-16T04:18:52.661Z,100612.37
2022-11-16T04:19:58.184Z,100604.56
2022-11-16T04:20:58.082Z,100603.67
2022-11-16T04:21:59.912Z,100604.53
2022-11-16T04:23:01.724Z,100605.41
2022-11-16T04:24:03.617Z,100596.75
2022-11-16T04:25:05.441Z,100593.30
2022-11-16T04:26:08.050Z,100595.89
2022-11-16T04:27:09.837Z,100598.51
2022-11-16T04:28:11.656Z,100594.16
2022-11-16T04:29:13.488Z,100593.31
2022-11-16T04:30:15.308Z,100593.31
2022-11-16T04:31:17.141Z,100598.53
2022-11-16T04:32:18.955Z,100595.95
2022-11-16T04:33:20.741Z,100589.91
2022-11-16T04:34:22.591Z,100594.30
2022-11-16T04:35:24.424Z,100594.31
2022-11-16T04:36:26.237Z,100591.72
2022-11-16T04:37:28.047Z,100593.42
2022-11-16T04:38:29.870Z,100594.31
2022-11-16T04:39:31.769Z,100596.94
2022-11-16T04:40:33.678Z,100592.61
2022-11-16T04:41:35.488Z,100592.61
2022-11-16T04:42:37.295Z,100592.63
2022-11-16T04:43:39.227Z,100592.63
2022-11-16T04:44:41.067Z,100595.22
2022-11-16T04:45:42.885Z,100588.30
2022-11-16T04:46:44.696Z,100584.82
2022-11-16T04:47:46.523Z,100584.82
2022-11-16T04:48:48.339Z,100587.44
2022-11-16T04:49:50.177Z,100584.82
2022-11-16T04:50:52.079Z,100589.17
2022-11-16T04:51:53.895Z,100595.22
2022-11-16T04:52:55.703Z,100587.44
2022-11-16T04:53:57.529Z,100585.70
2022-11-16T04:54:59.465Z,100583.11
2022-11-16T04:56:01.272Z,100583.11
2022-11-16T04:57:03.053Z,100584.86
2022-11-16T04:58:04.877Z,100584.02
2022-11-16T04:59:06.683Z,100582.30
2022-11-16T05:00:09.458Z,100577.10
2022-11-16T05:01:11.338Z,100584.91
2022-11-16T05:02:13.082Z,100587.53
2022-11-16T05:03:14.930Z,100588.39
2022-11-16T05:04:16.725Z,100584.91
2022-11-16T05:05:18.559Z,100581.45
2022-11-16T05:06:20.381Z,100589.27
2022-11-16T05:07:22.324Z,100580.60
2022-11-16T05:08:24.152Z,100591.88
2022-11-16T05:09:25.951Z,100578.03
2022-11-16T05:10:27.984Z,100581.52
2022-11-16T05:11:29.786Z,100581.52
2022-11-16T05:12:31.613Z,100576.33
2022-11-16T05:13:33.433Z,100575.45
2022-11-16T05:14:35.220Z,100575.48
2022-11-16T05:15:37.072Z,100578.97
2022-11-16T05:16:38.928Z,100576.37
2022-11-16T05:17:40.727Z,100578.09
2022-11-16T05:18:42.548Z,100574.64
2022-11-16T05:19:44.362Z,100570.30
2022-11-16T05:20:46.206Z,100575.52
2022-11-16T05:21:48.013Z,100579.03
2022-11-16T05:22:49.828Z,100573.86
2022-11-16T05:23:51.634Z,100573.00
2022-11-16T05:24:53.454Z,100571.27
2022-11-16T05:25:55.369Z,100569.53
2022-11-16T05:26:57.180Z,100573.02
2022-11-16T05:27:58.981Z,100570.45
2022-11-16T05:29:01.004Z,100569.55
2022-11-16T05:30:02.822Z,100570.45
2022-11-16T05:31:04.667Z,100571.33
2022-11-16T05:32:06.472Z,100570.47
2022-11-16T05:33:08.282Z,100567.88
2022-11-16T05:34:10.109Z,100563.54
2022-11-16T05:35:11.920Z,100568.73
2022-11-16T05:36:13.761Z,100568.73
2022-11-16T05:37:15.578Z,100568.73
2022-11-16T05:38:17.396Z,100571.33
2022-11-16T05:39:19.224Z,100569.57
2022-11-16T05:40:21.028Z,100568.73
2022-11-16T05:41:23.096Z,100573.91
2022-11-16T05:42:24.896Z,100562.66
2022-11-16T05:43:26.726Z,100560.92
2022-11-16T05:44:28.535Z,100569.57
2022-11-16T05:45:30.333Z,100563.54
2022-11-16T05:46:32.268Z,100560.97
2022-11-16T05:47:34.101Z,100562.70
2022-11-16T05:48:36.275Z,100562.70
2022-11-16T05:49:38.221Z,100556.61
2022-11-16T05:50:42.955Z,100561.83
2022-11-16T05:51:43.689Z,100567.02
2022-11-16T05:52:45.488Z,100561.84
2022-11-16T05:53:47.306Z,100559.25
2022-11-16T05:54:49.109Z,100557.56
2022-11-16T05:55:50.950Z,100551.48
2022-11-16T05:56:52.859Z,100555.85
2022-11-16T05:57:54.672Z,100556.72
2022-11-16T05:58:56.456Z,100555.03
2022-11-16T05:59:58.274Z,100549.86
2022-11-16T06:01:00.193Z,100554.16
2022-11-16T06:02:02.016Z,100551.58
2022-11-16T06:03:03.881Z,100546.39
2022-11-16T06:04:05.748Z,100555.07
2022-11-16T06:05:07.607Z,100549.88
2022-11-16T06:06:09.587Z,100547.28
2022-11-16T06:07:11.477Z,100551.59
2022-11-16T06:08:13.252Z,100547.30
2022-11-16T06:09:15.050Z,100549.02
2022-11-16T06:10:16.854Z,100553.38
2022-11-16T06:11:18.653Z,100547.34
2022-11-16T06:12:20.593Z,100553.39
2022-11-16T06:13:22.416Z,100553.41
2022-11-16T06:14:24.221Z,100548.23
2022-11-16T06:15:26.041Z,100551.73
2022-11-16T06:16:27.950Z,100546.53
2022-11-16T06:17:29.821Z,100546.55
2022-11-16T06:18:32.086Z,100550.02
2022-11-16T06:19:34.103Z,100537.89
2022-11-16T06:20:35.902Z,100550.03
2022-11-16T06:21:37.697Z,100545.70
2022-11-16T06:22:39.575Z,100537.91
2022-11-16T06:23:41.377Z,100536.20
2022-11-16T06:24:43.179Z,100543.12
2022-11-16T06:25:45.003Z,100536.22
2022-11-16T06:26:46.787Z,100535.34
2022-11-16T06:27:48.735Z,100537.96
2022-11-16T06:28:50.591Z,100544.05
2022-11-16T06:29:52.405Z,100537.12
2022-11-16T06:30:54.196Z,100540.58
2022-11-16T06:31:56.032Z,100538.00
2022-11-16T06:32:57.897Z,100531.94
2022-11-16T06:33:59.712Z,100544.09
2022-11-16T06:35:01.526Z,100536.31
2022-11-16T06:36:03.409Z,100537.17
2022-11-16T06:37:05.280Z,100537.17
2022-11-16T06:38:07.125Z,100543.23
2022-11-16T06:39:09.033Z,100545.83
2022-11-16T06:40:10.819Z,100538.92
2022-11-16T06:41:12.632Z,100532.84
2022-11-16T06:42:14.571Z,100525.94
2022-11-16T06:43:16.456Z,100527.66
2022-11-16T06:44:18.281Z,100529.41
2022-11-16T06:45:20.137Z,100530.31
2022-11-16T06:46:22.049Z,100527.66
2022-11-16T06:47:23.877Z,100526.81
2022-11-16T06:48:25.758Z,100524.22
2022-11-16T06:49:27.617Z,100521.63
2022-11-16T06:50:29.487Z,100524.22
2022-11-16T06:51:31.323Z,100530.31
2022-11-16T06:52:33.147Z,100530.31
2022-11-16T06:53:34.998Z,100527.70
2022-11-16T06:54:36.775Z,100528.55
2022-11-16T06:55:38.636Z,100520.77
2022-11-16T06:56:40.563Z,100521.63
2022-11-16T06:57:42.395Z,100519.87
2022-11-16T06:58:44.402Z,100511.23
2022-11-16T06:59:46.227Z,100507.79
2022-11-16T07:00:48.117Z,100506.95
2022-11-16T07:01:50.028Z,100517.34
2022-11-16T07:02:51.866Z,100514.75
2022-11-16T07:03:53.720Z,100507.82
2022-11-16T07:05:00.606Z,100510.42
2022-11-16T07:05:59.160Z,100503.50
2022-11-16T07:07:00.989Z,100502.66
2022-11-16T07:08:02.848Z,100505.26
2022-11-16T07:09:04.698Z,100503.52
2022-11-16T07:10:07.011Z,100502.66
2022-11-16T07:11:08.816Z,100501.81
2022-11-16T07:12:10.664Z,100506.14
2022-11-16T07:13:12.492Z,100505.29
2022-11-16T07:14:14.356Z,100508.75
2022-11-16T07:15:16.159Z,100500.09
2022-11-16T07:16:18.022Z,100510.50
2022-11-16T07:17:19.839Z,100498.36
2022-11-16T07:18:21.643Z,100500.97
2022-11-16T07:19:23.510Z,100500.11
2022-11-16T07:20:25.308Z,100500.11
2022-11-16T07:21:27.209Z,100494.90
2022-11-16T07:22:29.033Z,100499.25
2022-11-16T07:23:30.865Z,100502.70
2022-11-16T07:24:32.748Z,100498.39
2022-11-16T07:25:34.545Z,100503.58
2022-11-16T07:26:36.363Z,100501.00
2022-11-16T07:27:38.178Z,100503.59
2022-11-16T07:28:44.893Z,100501.02
2022-11-16T07:29:43.674Z,100500.16
2022-11-16T07:30:45.616Z,100499.31
2022-11-16T07:31:47.438Z,100501.02
2022-11-16T07:32:49.261Z,100497.58
2022-11-16T07:33:51.067Z,100499.31
2022-11-16T07:34:52.915Z,100494.96
2022-11-16T07:35:54.724Z,100500.16
2022-11-16T07:36:56.516Z,100492.36
2022-11-16T07:37:58.312Z,100494.95
2022-11-16T07:39:00.124Z,100488.91
2022-11-16T07:40:01.981Z,100497.56
2022-11-16T07:41:03.773Z,100484.55
2022-11-16T07:42:05.590Z,100484.55
2022-11-16T07:43:07.782Z,100491.55
2022-11-16T07:44:12.039Z,100493.27
2022-11-16T07:45:13.419Z,100491.56
2022-11-16T07:47:19.066Z,100491.58
2022-11-16T07:48:20.878Z,100483.78
2022-11-16T07:49:22.680Z,100486.38
2022-11-16T07:50:24.608Z,100486.38
2022-11-16T07:51:26.480Z,100493.31
2022-11-16T07:52:28.290Z,100488.98
2022-11-16T07:53:30.085Z,100489.85
2022-11-16T07:54:31.800Z,100486.41
2022-11-16T07:55:33.623Z,100486.42
2022-11-16T07:56:35.323Z,100491.64
2022-11-16T07:57:37.175Z,100483.00
2022-11-16T07:58:39.010Z,100481.25
2022-11-16T07:59:40.803Z,100484.72
2022-11-16T08:00:42.688Z,100481.27
2022-11-16T08:01:44.590Z,100481.27
2022-11-16T08:02:46.343Z,100480.42
2022-11-16T08:03:48.168Z,100481.28
2022-11-16T08:04:49.981Z,100483.03
2022-11-16T08:05:51.895Z,100483.90
2022-11-16T08:06:53.833Z,100487.37
2022-11-16T08:08:13.540Z,100475.25
2022-11-16T08:09:15.355Z,100480.47
2022-11-16T08:10:17.263Z,100474.37
2022-11-16T08:11:19.168Z,100476.98
2022-11-16T08:12:21.007Z,100473.53
2022-11-16T08:13:22.921Z,100472.69
2022-11-16T08:14:24.741Z,100481.34
2022-11-16T08:15:26.528Z,100473.55
2022-11-16T08:16:28.432Z,100472.70
2022-11-16T08:17:30.235Z,100475.30
2022-11-16T08:18:32.422Z,100476.14
2022-11-16T08:19:34.480Z,100476.16
2022-11-16T08:20:36.414Z,100468.34
2022-11-16T08:21:38.311Z,100465.74
2022-11-16T08:22:40.130Z,100469.20
2022-11-16T08:23:44.009Z,100466.61
2022-11-16T08:24:45.842Z,100458.81
2022-11-16T08:25:47.562Z,100464.08
2022-11-16T08:26:49.402Z,100458.88
2022-11-16T08:27:51.198Z,100461.47
2022-11-16T08:28:53.013Z,100455.40
2022-11-16T08:29:54.842Z,100460.59
2022-11-16T08:30:56.631Z,100453.69
2022-11-16T08:31:58.574Z,100452.80
2022-11-16T08:33:00.382Z,100450.21
2022-11-16T08:34:02.213Z,100452.81
2022-11-16T08:35:04.038Z,100451.12
2022-11-16T08:36:12.528Z,100451.98
2022-11-16T08:37:10.213Z,100453.73
2022-11-16T08:38:11.999Z,100452.84
2022-11-16T08:39:13.823Z,100448.53
2022-11-16T08:40:15.747Z,100451.14
2022-11-16T08:41:17.592Z,100447.64
2022-11-16T08:42:19.435Z,100438.98
2022-11-16T08:43:21.249Z,100441.59
2022-11-16T08:44:23.074Z,100440.73
2022-11-16T08:45:24.897Z,100437.25
2022-11-16T08:46:26.706Z,100440.73
2022-11-16T08:47:28.689Z,100436.41
2022-11-16T08:48:32.507Z,100438.14
2022-11-16T08:49:34.603Z,100440.73
2022-11-16T08:50:55.451Z,100439.00
2022-11-16T08:51:40.014Z,100436.41
2022-11-16T08:52:41.883Z,100431.20
2022-11-16T08:53:43.702Z,100438.14
2022-11-16T08:54:45.499Z,100431.20
2022-11-16T08:55:47.376Z,100437.27
2022-11-16T08:56:51.008Z,100432.06
2022-11-16T08:57:52.850Z,100435.55
2022-11-16T08:58:58.367Z,100433.81
2022-11-16T08:59:58.304Z,100435.56
2022-11-16T09:01:00.100Z,100437.30
2022-11-16T09:02:02.043Z,100428.64
2022-11-16T09:03:04.102Z,100428.64
2022-11-16T09:04:05.910Z,100432.98
2022-11-16T09:05:07.723Z,100428.64
2022-11-16T09:06:10.105Z,100430.39
2022-11-16T09:07:11.935Z,100426.91
2022-11-16T09:08:13.713Z,100426.05
2022-11-16T09:09:15.534Z,100427.81
2022-11-16T09:10:17.334Z,100426.06
2022-11-16T09:11:19.169Z,100422.61
2022-11-16T09:12:20.972Z,100421.73
2022-11-16T09:13:22.830Z,100421.73
2022-11-16T09:14:24.713Z,100423.48
2022-11-16T09:15:26.522Z,100417.43
2022-11-16T09:16:28.339Z,100417.44
2022-11-16T09:17:30.147Z,100416.56
2022-11-16T09:18:32.496Z,100409.65
2022-11-16T09:19:34.568Z,100404.45
2022-11-16T09:20:36.402Z,100411.41
2022-11-16T09:21:38.230Z,100406.20
2022-11-16T09:22:40.059Z,100405.32
2022-11-16T09:23:42.943Z,100407.92
2022-11-16T09:24:44.757Z,100410.53
2022-11-16T09:25:46.575Z,100401.01
2022-11-16T09:26:48.497Z,100397.52
2022-11-16T09:27:50.307Z,100392.33
2022-11-16T09:28:52.169Z,100386.27
2022-11-16T09:29:53.979Z,100392.33
2022-11-16T09:30:55.919Z,100379.31
2022-11-16T09:31:57.729Z,100388.87
2022-11-16T09:32:59.535Z,100381.06
2022-11-16T09:34:01.506Z,100378.50
2022-11-16T09:35:03.297Z,100376.72
2022-11-16T09:36:05.220Z,100380.22
2022-11-16T09:37:07.037Z,100380.26
2022-11-16T09:38:08.870Z,100370.71
2022-11-16T09:39:29.501Z,100374.17
2022-11-16T09:40:15.752Z,100371.57
2022-11-16T09:41:17.574Z,100370.72
2022-11-16T09:42:19.387Z,100373.33
2022-11-16T09:43:21.200Z,100363.77
2022-11-16T09:44:23.067Z,100361.17
2022-11-16T09:45:24.857Z,100357.72
2022-11-16T09:46:26.676Z,100356.87
2022-11-16T09:47:28.575Z,100361.19
2022-11-16T09:48:30.397Z,100354.27
2022-11-16T09:49:32.339Z,100358.59
2022-11-16T09:50:34.197Z,100354.28
2022-11-16T09:51:35.997Z,100353.38
2022-11-16T09:52:37.809Z,100350.80
2022-11-16T09:53:39.646Z,100352.53
2022-11-16T09:54:41.580Z,100351.67
2022-11-16T09:55:43.404Z,100359.48
2022-11-16T09:56:45.203Z,100357.73
2022-11-16T09:57:47.019Z,100349.94
2022-11-16T09:58:48.942Z,100353.41
2022-11-16T09:59:50.783Z,100349.95
2022-11-16T10:00:52.618Z,100354.30
2022-11-16T10:01:54.419Z,100354.30
2022-11-16T10:02:56.244Z,100356.89
2022-11-16T10:04:00.335Z,100353.41
2022-11-16T10:05:02.260Z,100349.94
2022-11-16T10:06:04.099Z,100357.74
2022-11-16T10:07:05.908Z,100351.69
2022-11-16T10:08:07.717Z,100354.28
2022-11-16T10:09:09.553Z,100344.73
2022-11-16T10:10:12.541Z,100355.99
2022-11-16T10:11:14.386Z,100351.69
2022-11-16T10:12:16.175Z,100354.28
2022-11-16T10:13:18.011Z,100349.94
2022-11-16T10:14:19.810Z,100350.80
2022-11-16T10:15:21.690Z,100347.34
2022-11-16T10:16:23.514Z,100349.08
2022-11-16T10:17:25.314Z,100347.33
2022-11-16T10:18:27.148Z,100350.80
2022-11-16T10:19:28.981Z,100355.99
2022-11-16T10:20:31.308Z,100344.74
2022-11-16T10:21:33.274Z,100343.89
2022-11-16T10:22:35.143Z,100346.49
2022-11-16T10:23:37.039Z,100344.75
2022-11-16T10:24:39.069Z,100347.34
2022-11-16T10:25:40.908Z,100344.75
2022-11-16T10:26:42.920Z,100347.36
2022-11-16T10:27:44.721Z,100343.00
2022-11-16T10:28:46.551Z,100346.50
2022-11-16T10:29:48.355Z,100342.16
2022-11-16T10:30:50.316Z,100336.10
2022-11-16T10:31:52.130Z,100338.71
2022-11-16T10:32:53.954Z,100343.91
2022-11-16T10:33:55.776Z,100341.31
2022-11-16T10:34:57.651Z,100336.11
2022-11-16T10:35:59.521Z,100327.42
2022-11-16T10:37:01.376Z,100335.23
2022-11-16T10:38:03.195Z,100327.44
2022-11-16T10:39:04.997Z,100332.67
2022-11-16T10:40:07.119Z,100328.33
2022-11-16T10:41:08.966Z,100331.80
2022-11-16T10:42:10.770Z,100324.87
2022-11-16T10:43:12.574Z,100324.00
2022-11-16T10:44:14.395Z,100321.39
2022-11-16T10:45:16.227Z,100312.73
2022-11-16T10:46:18.085Z,100320.55
2022-11-16T10:47:19.885Z,100314.49
2022-11-16T10:48:21.699Z,100322.30
2022-11-16T10:49:23.516Z,100317.09
2022-11-16T10:50:25.340Z,100318.80
2022-11-16T10:51:27.289Z,100328.35
2022-11-16T10:52:29.105Z,100316.20
2022-11-16T10:53:31.037Z,100317.94
2022-11-16T10:54:32.951Z,100310.99
2022-11-16T10:55:34.757Z,100314.48
2022-11-16T10:56:36.731Z,100310.12
2022-11-16T10:57:38.544Z,100310.12
2022-11-16T10:58:40.361Z,100305.78
2022-11-16T10:59:42.179Z,100309.27
2022-11-16T11:00:44.125Z,100311.87
2022-11-16T11:01:45.947Z,100311.83
2022-11-16T11:02:47.794Z,100304.91
2022-11-16T11:03:49.618Z,100301.42
2022-11-16T11:04:51.443Z,100293.61
2022-11-16T11:05:53.269Z,100301.41
2022-11-16T11:06:55.370Z,100297.95
2022-11-16T11:07:59.693Z,100296.21
2022-11-16T11:09:00.841Z,100301.41
2022-11-16T11:10:02.813Z,100294.48
2022-11-16T11:11:04.713Z,100289.28
2022-11-16T11:12:06.618Z,100295.34
2022-11-16T11:13:08.414Z,100289.28
2022-11-16T11:14:10.215Z,100286.68
2022-11-16T11:15:12.030Z,100284.94
2022-11-16T11:16:14.565Z,100291.89
2022-11-16T11:17:16.398Z,100280.59
2022-11-16T11:18:18.252Z,100293.59
2022-11-16T11:19:20.047Z,100284.08
2022-11-16T11:20:21.883Z,100291.87
2022-11-16T11:21:23.686Z,100288.39
2022-11-16T11:22:25.560Z,100288.39
2022-11-16T11:23:27.379Z,100283.19
2022-11-16T11:24:45.103Z,100280.58
2022-11-16T11:25:32.924Z,100286.67
2022-11-16T11:26:37.018Z,100279.72
2022-11-16T11:27:38.456Z,100280.58
2022-11-16T11:28:40.264Z,100276.26
2022-11-16T11:29:42.073Z,100283.17
2022-11-16T11:30:44.005Z,100270.17
2022-11-16T11:31:45.832Z,100272.77
2022-11-16T11:32:47.708Z,100270.16
2022-11-16T11:33:49.493Z,100271.05
2022-11-16T11:34:51.333Z,100271.91
2022-11-16T11:35:53.095Z,100265.86
2022-11-16T11:36:54.916Z,100264.11
2022-11-16T11:37:56.809Z,100265.86
2022-11-16T11:38:58.697Z,100259.77
2022-11-16T11:40:00.579Z,100262.38
2022-11-16T11:41:03.087Z,100263.27
2022-11-16T11:42:04.886Z,100259.77
2022-11-16T11:43:06.730Z,100258.91
2022-11-16T11:44:08.521Z,100255.46
2022-11-16T11:45:10.245Z,100251.97
2022-11-16T11:46:12.186Z,100259.78
2022-11-16T11:47:56.137Z,100251.12